Doris Moran — WRU2125 — position and weather

sailwx.info

Track history (hours):
 
Tides and Currents Weather Stations Pressure Air Temp Water Temp Dewpoint Dewpoint Depression Visibility Wind Speed Wind Dir Waves Ship Positions

Doris Moran

Owner: MORAN TOWING CORPORATION, New Canaan, CT. More information available from US FCC via Universal Licensing System and Coast Guard Vessel Documentation Center.

Last reported at 2017-Dec-11 04:00 UTC. Time now 2017-Dec-11 04:27 UTC.
Position N 40°39' W 074°05'.

Length 36 m; draft 5.3 m.

Type: . MMSI: 366939790.

Date/timePositionNaut miles runAvg speedWind from/ knotsBaromVisibWave heightAir tempDewpointWater temp
2017-Dec-11 04:00N 40°39' W 074°05'3 6.4
2017-Dec-11 03:30N 40°39' W 074°09'4 7.5
2017-Dec-11 03:00N 40°43' W 074°07'0 0.3
2017-Dec-11 02:29N 40°43' W 074°07'0 0.1
2017-Dec-11 01:58N 40°43' W 074°07'0 0.0
2017-Dec-11 01:28N 40°43' W 074°07'0 0.0
2017-Dec-11 00:58N 40°43' W 074°07'0 0.0
2017-Dec-11 00:29N 40°43' W 074°07'0 0.0
2017-Dec-10 23:56N 40°43' W 074°07'0 0.0
2017-Dec-10 23:30N 40°43' W 074°07'1 1.0
2017-Dec-10 23:00N 40°42' W 074°07'4 7.6
2017-Dec-10 22:30N 40°39' W 074°09'3 6.7
2017-Dec-10 22:00N 40°39' W 074°05'1 2.7
2017-Dec-10 21:31N 40°38' W 074°04'0 0.5
2017-Dec-10 21:00N 40°38' W 074°04'0 0.3
2017-Dec-10 20:31N 40°38' W 074°04'0 0.2
2017-Dec-10 20:01N 40°38' W 074°04'0 0.2
2017-Dec-10 19:31N 40°38' W 074°04'0 0.6
2017-Dec-10 19:01N 40°38' W 074°04'0 0.8
2017-Dec-10 18:30N 40°38' W 074°04'3 6.4
2017-Dec-10 18:01N 40°39' W 074°08'3 6.1
2017-Dec-10 17:30N 40°42' W 074°07'1 2.2
2017-Dec-10 17:01N 40°43' W 074°07'0 0.0
2017-Dec-10 16:28N 40°43' W 074°07'0 0.0
2017-Dec-10 15:58N 40°43' W 074°07'0 0.0
2017-Dec-10 15:25N 40°43' W 074°07'0 0.0
2017-Dec-10 14:58N 40°43' W 074°07'0 0.0
2017-Dec-10 14:28N 40°43' W 074°07'1 2.3
2017-Dec-10 14:00N 40°42' W 074°07'3 6.2
2017-Dec-10 13:30N 40°38' W 074°08'0 0.0
2017-Dec-10 13:00N 40°38' W 074°08'0 0.0
2017-Dec-10 12:30N 40°38' W 074°08'0 0.0
2017-Dec-10 12:00N 40°38' W 074°08'0 0.0
2017-Dec-10 11:30N 40°38' W 074°08'0 0.0
2017-Dec-10 11:00N 40°38' W 074°08'0 0.0
2017-Dec-10 10:30N 40°38' W 074°08'0 0.0
2017-Dec-10 10:00N 40°38' W 074°08'0 0.0
2017-Dec-10 09:30N 40°38' W 074°08'0 0.0
2017-Dec-10 09:00N 40°38' W 074°08'0 0.0
2017-Dec-10 08:30N 40°38' W 074°08'0 0.0
2017-Dec-10 08:00N 40°38' W 074°08'0 0.0
2017-Dec-10 07:30N 40°38' W 074°08'0 0.0
2017-Dec-10 07:00N 40°38' W 074°08'0 0.0
2017-Dec-10 06:24N 40°38' W 074°08'0 0.0
2017-Dec-10 06:00N 40°38' W 074°08'0 0.0
2017-Dec-10 05:29N 40°38' W 074°08'0 0.0
2017-Dec-10 04:59N 40°38' W 074°08'0 0.0
2017-Dec-10 04:30N 40°38' W 074°08'0 0.0
2017-Dec-10 04:00N 40°38' W 074°08'0 0.0
2017-Dec-10 03:30N 40°38' W 074°08'0 0.0
2017-Dec-10 02:54N 40°38' W 074°08'0 0.0
2017-Dec-10 02:30N 40°38' W 074°08'0 0.0
2017-Dec-10 01:59N 40°38' W 074°08'0 0.0
2017-Dec-10 01:29N 40°38' W 074°08'0 0.0
2017-Dec-10 00:59N 40°38' W 074°08'0 0.0
2017-Dec-10 00:30N 40°38' W 074°08'0 0.0
2017-Dec-10 00:00N 40°38' W 074°08'0 0.0
2017-Dec-09 23:29N 40°38' W 074°08'0 0.0
2017-Dec-09 22:51N 40°38' W 074°08'0 0.0
2017-Dec-09 22:27N 40°38' W 074°08'0 0.0
2017-Dec-09 22:00N 40°38' W 074°08'0 0.0
2017-Dec-09 21:30N 40°38' W 074°08'0 0.0
2017-Dec-09 21:00N 40°38' W 074°08'0 0.0
2017-Dec-09 20:27N 40°38' W 074°08'0 0.0
2017-Dec-09 20:00N 40°38' W 074°08'0 0.0
2017-Dec-09 19:21N 40°38' W 074°08'0 0.0
2017-Dec-09 18:54N 40°38' W 074°08'0 0.0
2017-Dec-09 18:30N 40°38' W 074°08'3 5.7
2017-Dec-09 18:00N 40°41' W 074°08'1 2.8
2017-Dec-09 17:30N 40°43' W 074°07'2 3.1
2017-Dec-09 17:00N 40°41' W 074°08'0 0.8
2017-Dec-09 16:30N 40°41' W 074°08'1 3.0
2017-Dec-09 16:00N 40°39' W 074°09'3 6.2
2017-Dec-09 15:30N 40°42' W 074°07'0 0.9
2017-Dec-09 15:00N 40°43' W 074°07'0 0.0
2017-Dec-09 14:30N 40°43' W 074°07'3 5.8
2017-Dec-09 14:00N 40°40' W 074°08'2 2.8
2017-Dec-09 13:28N 40°38' W 074°08'0 0.0
2017-Dec-09 12:58N 40°38' W 074°08'0 0.0
2017-Dec-09 12:16N 40°38' W 074°08'0 0.0
2017-Dec-09 11:55N 40°38' W 074°08'0 0.0
2017-Dec-09 11:28N 40°38' W 074°08'0 0.0
2017-Dec-09 10:52N 40°38' W 074°08'0 0.0
2017-Dec-09 10:28N 40°38' W 074°08'0 0.0
2017-Dec-09 09:58N 40°38' W 074°08'0 0.0
2017-Dec-09 09:22N 40°38' W 074°08'0 0.0
2017-Dec-09 08:52N 40°38' W 074°08'0 0.0
2017-Dec-09 08:22N 40°38' W 074°08'0 0.0
2017-Dec-09 07:55N 40°38' W 074°08'0 0.0
2017-Dec-09 07:22N 40°38' W 074°08'0 0.0
2017-Dec-09 06:55N 40°38' W 074°08'0 0.0
2017-Dec-09 06:28N 40°38' W 074°08'0 0.0
2017-Dec-09 05:58N 40°38' W 074°08'0 0.0
2017-Dec-09 05:28N 40°38' W 074°08'0 0.0
2017-Dec-09 04:52N 40°38' W 074°08'0 0.0
2017-Dec-09 04:28N 40°38' W 074°08'0 0.0
2017-Dec-09 03:49N 40°38' W 074°08'0 0.0
2017-Dec-09 00:35N 40°38' W 074°08'0 0.0
2017-Dec-09 00:23N 40°38' W 074°08'0 0.3
2017-Dec-09 00:00N 40°39' W 074°08'4 8.0
2017-Dec-08 23:30N 40°42' W 074°07'0 0.2
2017-Dec-08 23:00N 40°43' W 074°07'3 6.1
2017-Dec-08 22:30N 40°40' W 074°09'2 4.3
2017-Dec-08 22:00N 40°39' W 074°06'3 5.7
2017-Dec-08 21:30N 40°37' W 074°03'3 5.2
2017-Dec-08 21:00N 40°35' W 074°01'0 0.0
2017-Dec-08 20:30N 40°35' W 074°01'0 0.0
2017-Dec-08 20:00N 40°35' W 074°01'0 0.1
2017-Dec-08 19:27N 40°35' W 074°01'0 0.0
2017-Dec-08 19:00N 40°35' W 074°01'0 0.0
2017-Dec-08 18:27N 40°35' W 074°01'0 0.1
2017-Dec-08 17:59N 40°35' W 074°01'0 0.4
2017-Dec-08 17:30N 40°35' W 074°01'4 8.1
2017-Dec-08 17:00N 40°39' W 074°04'4 7.7
2017-Dec-08 16:30N 40°39' W 074°09'3 6.9
2017-Dec-08 16:00N 40°42' W 074°07'1 1.2
2017-Dec-08 15:30N 40°42' W 074°07'0 0.8
2017-Dec-08 15:00N 40°43' W 074°07'0 0.0
2017-Dec-08 14:29N 40°43' W 074°07'0 0.0
2017-Dec-08 13:59N 40°43' W 074°07'0 0.0
2017-Dec-08 13:29N 40°43' W 074°07'0 0.0
2017-Dec-08 12:59N 40°43' W 074°07'0 0.0
2017-Dec-08 12:29N 40°43' W 074°07'0 0.0
2017-Dec-08 11:59N 40°43' W 074°07'0 0.0
2017-Dec-08 11:29N 40°43' W 074°07'0 0.0
2017-Dec-08 10:59N 40°43' W 074°07'0 0.0
2017-Dec-08 10:29N 40°43' W 074°07'0 0.0
2017-Dec-08 09:59N 40°43' W 074°07'0 0.0
2017-Dec-08 09:29N 40°43' W 074°07'0 0.0
2017-Dec-08 08:59N 40°43' W 074°07'0 0.0
2017-Dec-08 08:29N 40°43' W 074°07'0 0.0
2017-Dec-08 07:56N 40°43' W 074°07'0 0.0
2017-Dec-08 07:29N 40°43' W 074°07'0 0.0
2017-Dec-08 06:59N 40°43' W 074°07'0 0.0
2017-Dec-08 06:29N 40°43' W 074°07'0 0.0
2017-Dec-08 05:59N 40°43' W 074°07'0 0.0
2017-Dec-08 05:29N 40°43' W 074°07'0 0.0
2017-Dec-08 04:59N 40°43' W 074°07'0 0.0
2017-Dec-08 04:30N 40°43' W 074°07'0 0.0
2017-Dec-08 04:00N 40°43' W 074°07'0 0.0
2017-Dec-08 03:30N 40°43' W 074°07'0 0.0
2017-Dec-08 03:00N 40°43' W 074°07'0 0.0
2017-Dec-08 02:30N 40°43' W 074°07'0 0.0
2017-Dec-08 02:00N 40°43' W 074°07'0 0.2
2017-Dec-08 01:30N 40°43' W 074°07'2 3.5
2017-Dec-08 01:00N 40°41' W 074°08'2 4.4
2017-Dec-08 00:30N 40°39' W 074°09'4 8.2
2017-Dec-08 00:00N 40°39' W 074°04'1 1.3
2017-Dec-07 23:28N 40°39' W 074°03'0 0.1
2017-Dec-07 22:58N 40°39' W 074°03'0 0.0
2017-Dec-07 22:28N 40°39' W 074°03'0 0.0
2017-Dec-07 21:58N 40°39' W 074°03'0 0.0
2017-Dec-07 21:28N 40°39' W 074°03'0 0.0
2017-Dec-07 20:58N 40°39' W 074°03'0 0.1
2017-Dec-07 20:28N 40°39' W 074°03'0 0.1
2017-Dec-07 19:58N 40°39' W 074°03'0 0.1
2017-Dec-07 19:28N 40°39' W 074°03'0 0.1
2017-Dec-07 18:58N 40°39' W 074°02'0 0.0
2017-Dec-07 18:28N 40°39' W 074°02'0 0.1
2017-Dec-07 17:58N 40°39' W 074°02'0 0.2
2017-Dec-07 17:30N 40°39' W 074°02'0 0.1
2017-Dec-07 17:00N 40°39' W 074°02'0 0.1
2017-Dec-07 16:30N 40°39' W 074°02'0 0.0
2017-Dec-07 16:00N 40°39' W 074°03'0 0.1
2017-Dec-07 15:30N 40°39' W 074°02'0 0.0
2017-Dec-07 15:00N 40°39' W 074°02'0 0.0
2017-Dec-07 14:30N 40°39' W 074°02'0 0.0
2017-Dec-07 14:00N 40°39' W 074°02'0 0.0
2017-Dec-07 13:30N 40°39' W 074°02'0 0.0
2017-Dec-07 13:00N 40°39' W 074°02'0 0.0
2017-Dec-07 12:30N 40°39' W 074°02'0 0.3
2017-Dec-07 12:00N 40°39' W 074°03'0 0.2
2017-Dec-07 11:30N 40°39' W 074°03'0 0.0
2017-Dec-07 11:00N 40°39' W 074°03'0 0.0
2017-Dec-07 10:30N 40°39' W 074°03'2 4.8
2017-Dec-07 10:00N 40°36' W 074°03'2 4.5
2017-Dec-07 09:30N 40°34' W 074°02'1 2.5
2017-Dec-07 09:00N 40°33' W 074°02'3 3.5
2017-Dec-07 08:00N 40°31' W 073°58'2 3.7
2017-Dec-07 07:30N 40°30' W 073°56'2 4.1
2017-Dec-07 07:00N 40°29' W 073°54'3 5.9
2017-Dec-07 06:26N 40°26' W 073°53'4 7.4
2017-Dec-07 05:55N 40°22' W 073°53'33 7.5
2017-Dec-07 01:34N 39°49' W 073°58'0 7.8
2017-Dec-07 01:30N 39°49' W 073°58'4 7.8
2017-Dec-07 01:00N 39°45' W 073°59'4 7.8
2017-Dec-07 00:29N 39°41' W 073°60'4 7.8
2017-Dec-06 23:59N 39°37' W 074°01'4 7.8
2017-Dec-06 23:29N 39°34' W 074°02'5 7.8
2017-Dec-06 22:52N 39°29' W 074°04'  
2017-Dec-04 10:30N 36°46' W 076°18'0 0.0
2017-Dec-04 10:00N 36°46' W 076°18'0 0.0
2017-Dec-04 09:30N 36°46' W 076°18'0 0.0
2017-Dec-04 09:00N 36°46' W 076°18'0 0.0
2017-Dec-04 08:30N 36°46' W 076°18'0 0.0
2017-Dec-04 08:00N 36°46' W 076°18'0 0.0
2017-Dec-04 07:30N 36°46' W 076°18'0 0.0
2017-Dec-04 07:00N 36°46' W 076°18'0 0.0
2017-Dec-04 06:30N 36°46' W 076°18'0 0.0
2017-Dec-04 06:00N 36°46' W 076°18'0 0.0
2017-Dec-04 05:30N 36°46' W 076°18'0 0.0
2017-Dec-04 05:00N 36°46' W 076°18'0 0.0
2017-Dec-04 04:30N 36°46' W 076°18'0 0.0
2017-Dec-04 04:00N 36°46' W 076°18'0 0.0
2017-Dec-04 03:30N 36°46' W 076°18'0 0.0
2017-Dec-04 03:00N 36°46' W 076°18'0 0.0
2017-Dec-04 02:30N 36°46' W 076°18'0 0.0
2017-Dec-04 02:00N 36°46' W 076°18'0 0.0
2017-Dec-04 01:30N 36°46' W 076°18'0 0.0
2017-Dec-04 01:00N 36°46' W 076°18'0 0.0
2017-Dec-04 00:30N 36°46' W 076°18'0 0.0
2017-Dec-04 00:00N 36°46' W 076°18'0 0.0
2017-Dec-03 23:30N 36°46' W 076°18'0 0.0
2017-Dec-03 23:00N 36°46' W 076°18'0 0.0
2017-Dec-03 22:30N 36°46' W 076°18'0 0.0
2017-Dec-03 22:00N 36°46' W 076°18'0 0.0
2017-Dec-03 21:30N 36°46' W 076°18'0 0.0
2017-Dec-03 21:00N 36°46' W 076°18'0 0.0
2017-Dec-03 20:30N 36°46' W 076°18'0 0.7
2017-Dec-03 20:00N 36°47' W 076°18'1 1.1
2017-Dec-03 19:30N 36°47' W 076°18'3 5.2
2017-Dec-03 19:00N 36°50' W 076°18'3 6.5
2017-Dec-03 18:30N 36°52' W 076°20'5 7.8
2017-Dec-03 17:55N 36°57' W 076°20'11 3.0
2017-Dec-03 14:22N 36°59' W 076°07'3 8.7
2017-Dec-03 14:00N 36°58' W 076°03'4 8.9
2017-Dec-03 13:30N 36°57' W 075°58'5 9.5
2017-Dec-03 13:00N 36°57' W 075°52'17410.8
2017-Dec-02 20:59N 39°29' W 074°05'511.0
2017-Dec-02 20:30N 39°34' W 074°02'610.9
2017-Dec-02 20:00N 39°39' W 074°00'611.0
2017-Dec-02 19:29N 39°45' W 073°59'510.9
2017-Dec-02 19:00N 39°50' W 073°58'3410.3
2017-Dec-02 15:43N 40°23' W 073°54'3 9.8
2017-Dec-02 15:27N 40°26' W 073°54'4 8.0
2017-Dec-02 14:59N 40°30' W 073°56'5 9.7
2017-Dec-02 14:29N 40°32' W 074°01'4 9.1
2017-Dec-02 14:00N 40°36' W 074°03'2 4.9
2017-Dec-02 13:30N 40°38' W 074°04'3 6.7
2017-Dec-02 13:00N 40°39' W 074°08'3 5.0
2017-Dec-02 12:30N 40°41' W 074°08'2 3.4
2017-Dec-02 12:00N 40°43' W 074°07'0 0.0
2017-Dec-02 11:30N 40°43' W 074°07'0 0.1
2017-Dec-02 11:00N 40°43' W 074°07'0 0.0
2017-Dec-02 10:30N 40°43' W 074°07'0 0.0
2017-Dec-02 10:00N 40°43' W 074°07'0 0.0
2017-Dec-02 09:30N 40°43' W 074°07'0 0.0
2017-Dec-02 09:00N 40°43' W 074°07'0 0.0
2017-Dec-02 08:30N 40°43' W 074°07'0 0.0
2017-Dec-02 08:00N 40°43' W 074°07'0 0.0
2017-Dec-02 07:30N 40°43' W 074°07'0 0.0
2017-Dec-02 07:00N 40°43' W 074°07'0 0.0
2017-Dec-02 06:30N 40°43' W 074°07'0 0.0
2017-Dec-02 06:00N 40°43' W 074°07'0 0.0
2017-Dec-02 05:30N 40°43' W 074°07'0 0.0
2017-Dec-02 05:00N 40°43' W 074°07'0 0.0
2017-Dec-02 04:30N 40°43' W 074°07'0 0.0
2017-Dec-02 04:00N 40°43' W 074°07'0 0.0
2017-Dec-02 03:30N 40°43' W 074°07'0 0.0
2017-Dec-02 03:00N 40°43' W 074°07'0 0.0
2017-Dec-02 02:30N 40°43' W 074°07'0 0.0
2017-Dec-02 02:00N 40°43' W 074°07'0 0.0
2017-Dec-02 01:30N 40°43' W 074°07'0 0.0
2017-Dec-02 01:00N 40°43' W 074°07'0 0.0
2017-Dec-02 00:30N 40°43' W 074°07'0 0.0
2017-Dec-02 00:00N 40°43' W 074°07'0 0.0
2017-Dec-01 23:30N 40°43' W 074°07'0 0.0
2017-Dec-01 23:00N 40°43' W 074°07'0 0.1
2017-Dec-01 22:30N 40°43' W 074°07'2 4.3
2017-Dec-01 22:00N 40°41' W 074°08'2 4.0
2017-Dec-01 21:30N 40°39' W 074°07'3 6.0
2017-Dec-01 21:00N 40°38' W 074°03'0 0.2
2017-Dec-01 20:30N 40°38' W 074°03'0 0.0
2017-Dec-01 20:00N 40°38' W 074°03'0 0.1
2017-Dec-01 19:30N 40°38' W 074°03'0 0.1
2017-Dec-01 19:00N 40°38' W 074°03'0 0.2
2017-Dec-01 18:30N 40°38' W 074°03'0 0.3
2017-Dec-01 18:00N 40°38' W 074°03'3 5.8
2017-Dec-01 17:30N 40°39' W 074°07'2 3.5
2017-Dec-01 17:00N 40°40' W 074°08'2 4.6
2017-Dec-01 16:30N 40°42' W 074°07'0 0.8
2017-Dec-01 16:00N 40°43' W 074°07'0 0.2
2017-Dec-01 15:30N 40°43' W 074°07'0 0.0
2017-Dec-01 15:00N 40°43' W 074°07'3 6.1
2017-Dec-01 14:30N 40°40' W 074°08'1 2.8
2017-Dec-01 14:00N 40°38' W 074°08'0 0.0
2017-Dec-01 13:30N 40°38' W 074°08'0 0.0
2017-Dec-01 13:00N 40°38' W 074°08'0 0.0
2017-Dec-01 12:30N 40°38' W 074°08'0 0.0
2017-Dec-01 12:00N 40°38' W 074°08'0 0.0
2017-Dec-01 11:30N 40°38' W 074°08'0 0.0
2017-Dec-01 11:00N 40°38' W 074°08'0 0.0
2017-Dec-01 10:30N 40°38' W 074°08'0 0.0
2017-Dec-01 10:00N 40°38' W 074°08'0 0.0
2017-Dec-01 09:30N 40°38' W 074°08'0 0.0
2017-Dec-01 09:00N 40°38' W 074°08'0 0.0
2017-Dec-01 08:30N 40°38' W 074°08'0 0.0
2017-Dec-01 07:59N 40°38' W 074°08'0 0.0
2017-Dec-01 07:30N 40°38' W 074°08'0 0.0
2017-Dec-01 07:00N 40°38' W 074°08'0 0.0
2017-Dec-01 06:30N 40°38' W 074°08'0 0.0
2017-Dec-01 06:00N 40°38' W 074°08'0 0.0
2017-Dec-01 05:30N 40°38' W 074°08'0 0.0
2017-Dec-01 05:00N 40°38' W 074°08'0 0.0
2017-Dec-01 04:30N 40°38' W 074°08'  
Track history (hours):
 
Tides and Currents Weather Stations Pressure Air Temp Water Temp Dewpoint Dewpoint Depression Visibility Wind Speed Wind Dir Waves Ship Positions

Doris Moran

Owner: MORAN TOWING CORPORATION, New Canaan, CT. More information available from US FCC via Universal Licensing System and Coast Guard Vessel Documentation Center.

Last reported at 2017-Dec-11 04:00 UTC. Time now 2017-Dec-11 04:27 UTC.
Position N 40°39' W 074°05'.

Length 36 m; draft 5.3 m.

Type: . MMSI: 366939790.

Date/timePositionNaut miles runAvg speedWind from/ knotsBaromVisibWave heightAir tempDewpointWater temp
2017-Dec-11 04:00N 40°39' W 074°05'3 6.4
2017-Dec-11 03:30N 40°39' W 074°09'4 7.5
2017-Dec-11 03:00N 40°43' W 074°07'0 0.3
2017-Dec-11 02:29N 40°43' W 074°07'0 0.1
2017-Dec-11 01:58N 40°43' W 074°07'0 0.0
2017-Dec-11 01:28N 40°43' W 074°07'0 0.0
2017-Dec-11 00:58N 40°43' W 074°07'0 0.0
2017-Dec-11 00:29N 40°43' W 074°07'0 0.0
2017-Dec-10 23:56N 40°43' W 074°07'0 0.0
2017-Dec-10 23:30N 40°43' W 074°07'1 1.0
2017-Dec-10 23:00N 40°42' W 074°07'4 7.6
2017-Dec-10 22:30N 40°39' W 074°09'3 6.7
2017-Dec-10 22:00N 40°39' W 074°05'1 2.7
2017-Dec-10 21:31N 40°38' W 074°04'0 0.5
2017-Dec-10 21:00N 40°38' W 074°04'0 0.3
2017-Dec-10 20:31N 40°38' W 074°04'0 0.2
2017-Dec-10 20:01N 40°38' W 074°04'0 0.2
2017-Dec-10 19:31N 40°38' W 074°04'0 0.6
2017-Dec-10 19:01N 40°38' W 074°04'0 0.8
2017-Dec-10 18:30N 40°38' W 074°04'3 6.4
2017-Dec-10 18:01N 40°39' W 074°08'3 6.1
2017-Dec-10 17:30N 40°42' W 074°07'1 2.2
2017-Dec-10 17:01N 40°43' W 074°07'0 0.0
2017-Dec-10 16:28N 40°43' W 074°07'0 0.0
2017-Dec-10 15:58N 40°43' W 074°07'0 0.0
2017-Dec-10 15:25N 40°43' W 074°07'0 0.0
2017-Dec-10 14:58N 40°43' W 074°07'0 0.0
2017-Dec-10 14:28N 40°43' W 074°07'1 2.3
2017-Dec-10 14:00N 40°42' W 074°07'3 6.2
2017-Dec-10 13:30N 40°38' W 074°08'0 0.0
2017-Dec-10 13:00N 40°38' W 074°08'0 0.0
2017-Dec-10 12:30N 40°38' W 074°08'0 0.0
2017-Dec-10 12:00N 40°38' W 074°08'0 0.0
2017-Dec-10 11:30N 40°38' W 074°08'0 0.0
2017-Dec-10 11:00N 40°38' W 074°08'0 0.0
2017-Dec-10 10:30N 40°38' W 074°08'0 0.0
2017-Dec-10 10:00N 40°38' W 074°08'0 0.0
2017-Dec-10 09:30N 40°38' W 074°08'0 0.0
2017-Dec-10 09:00N 40°38' W 074°08'0 0.0
2017-Dec-10 08:30N 40°38' W 074°08'0 0.0
2017-Dec-10 08:00N 40°38' W 074°08'0 0.0
2017-Dec-10 07:30N 40°38' W 074°08'0 0.0
2017-Dec-10 07:00N 40°38' W 074°08'0 0.0
2017-Dec-10 06:24N 40°38' W 074°08'0 0.0
2017-Dec-10 06:00N 40°38' W 074°08'0 0.0
2017-Dec-10 05:29N 40°38' W 074°08'0 0.0
2017-Dec-10 04:59N 40°38' W 074°08'0 0.0
2017-Dec-10 04:30N 40°38' W 074°08'0 0.0
2017-Dec-10 04:00N 40°38' W 074°08'0 0.0
2017-Dec-10 03:30N 40°38' W 074°08'0 0.0
2017-Dec-10 02:54N 40°38' W 074°08'0 0.0
2017-Dec-10 02:30N 40°38' W 074°08'0 0.0
2017-Dec-10 01:59N 40°38' W 074°08'0 0.0
2017-Dec-10 01:29N 40°38' W 074°08'0 0.0
2017-Dec-10 00:59N 40°38' W 074°08'0 0.0
2017-Dec-10 00:30N 40°38' W 074°08'0 0.0
2017-Dec-10 00:00N 40°38' W 074°08'0 0.0
2017-Dec-09 23:29N 40°38' W 074°08'0 0.0
2017-Dec-09 22:51N 40°38' W 074°08'0 0.0
2017-Dec-09 22:27N 40°38' W 074°08'0 0.0
2017-Dec-09 22:00N 40°38' W 074°08'0 0.0
2017-Dec-09 21:30N 40°38' W 074°08'0 0.0
2017-Dec-09 21:00N 40°38' W 074°08'0 0.0
2017-Dec-09 20:27N 40°38' W 074°08'0 0.0
2017-Dec-09 20:00N 40°38' W 074°08'0 0.0
2017-Dec-09 19:21N 40°38' W 074°08'0 0.0
2017-Dec-09 18:54N 40°38' W 074°08'0 0.0
2017-Dec-09 18:30N 40°38' W 074°08'3 5.7
2017-Dec-09 18:00N 40°41' W 074°08'1 2.8
2017-Dec-09 17:30N 40°43' W 074°07'2 3.1
2017-Dec-09 17:00N 40°41' W 074°08'0 0.8
2017-Dec-09 16:30N 40°41' W 074°08'1 3.0
2017-Dec-09 16:00N 40°39' W 074°09'3 6.2
2017-Dec-09 15:30N 40°42' W 074°07'0 0.9
2017-Dec-09 15:00N 40°43' W 074°07'0 0.0
2017-Dec-09 14:30N 40°43' W 074°07'3 5.8
2017-Dec-09 14:00N 40°40' W 074°08'2 2.8
2017-Dec-09 13:28N 40°38' W 074°08'0 0.0
2017-Dec-09 12:58N 40°38' W 074°08'0 0.0
2017-Dec-09 12:16N 40°38' W 074°08'0 0.0
2017-Dec-09 11:55N 40°38' W 074°08'0 0.0
2017-Dec-09 11:28N 40°38' W 074°08'0 0.0
2017-Dec-09 10:52N 40°38' W 074°08'0 0.0
2017-Dec-09 10:28N 40°38' W 074°08'0 0.0
2017-Dec-09 09:58N 40°38' W 074°08'0 0.0
2017-Dec-09 09:22N 40°38' W 074°08'0 0.0
2017-Dec-09 08:52N 40°38' W 074°08'0 0.0
2017-Dec-09 08:22N 40°38' W 074°08'0 0.0
2017-Dec-09 07:55N 40°38' W 074°08'0 0.0
2017-Dec-09 07:22N 40°38' W 074°08'0 0.0
2017-Dec-09 06:55N 40°38' W 074°08'0 0.0
2017-Dec-09 06:28N 40°38' W 074°08'0 0.0
2017-Dec-09 05:58N 40°38' W 074°08'0 0.0
2017-Dec-09 05:28N 40°38' W 074°08'0 0.0
2017-Dec-09 04:52N 40°38' W 074°08'0 0.0
2017-Dec-09 04:28N 40°38' W 074°08'0 0.0
2017-Dec-09 03:49N 40°38' W 074°08'0 0.0
2017-Dec-09 00:35N 40°38' W 074°08'0 0.0
2017-Dec-09 00:23N 40°38' W 074°08'0 0.3
2017-Dec-09 00:00N 40°39' W 074°08'4 8.0
2017-Dec-08 23:30N 40°42' W 074°07'0 0.2
2017-Dec-08 23:00N 40°43' W 074°07'3 6.1
2017-Dec-08 22:30N 40°40' W 074°09'2 4.3
2017-Dec-08 22:00N 40°39' W 074°06'3 5.7
2017-Dec-08 21:30N 40°37' W 074°03'3 5.2
2017-Dec-08 21:00N 40°35' W 074°01'0 0.0
2017-Dec-08 20:30N 40°35' W 074°01'0 0.0
2017-Dec-08 20:00N 40°35' W 074°01'0 0.1
2017-Dec-08 19:27N 40°35' W 074°01'0 0.0
2017-Dec-08 19:00N 40°35' W 074°01'0 0.0
2017-Dec-08 18:27N 40°35' W 074°01'0 0.1
2017-Dec-08 17:59N 40°35' W 074°01'0 0.4
2017-Dec-08 17:30N 40°35' W 074°01'4 8.1
2017-Dec-08 17:00N 40°39' W 074°04'4 7.7
2017-Dec-08 16:30N 40°39' W 074°09'3 6.9
2017-Dec-08 16:00N 40°42' W 074°07'1 1.2
2017-Dec-08 15:30N 40°42' W 074°07'0 0.8
2017-Dec-08 15:00N 40°43' W 074°07'0 0.0
2017-Dec-08 14:29N 40°43' W 074°07'0 0.0
2017-Dec-08 13:59N 40°43' W 074°07'0 0.0
2017-Dec-08 13:29N 40°43' W 074°07'0 0.0
2017-Dec-08 12:59N 40°43' W 074°07'0 0.0
2017-Dec-08 12:29N 40°43' W 074°07'0 0.0
2017-Dec-08 11:59N 40°43' W 074°07'0 0.0
2017-Dec-08 11:29N 40°43' W 074°07'0 0.0
2017-Dec-08 10:59N 40°43' W 074°07'0 0.0
2017-Dec-08 10:29N 40°43' W 074°07'0 0.0
2017-Dec-08 09:59N 40°43' W 074°07'0 0.0
2017-Dec-08 09:29N 40°43' W 074°07'0 0.0
2017-Dec-08 08:59N 40°43' W 074°07'0 0.0
2017-Dec-08 08:29N 40°43' W 074°07'0 0.0
2017-Dec-08 07:56N 40°43' W 074°07'0 0.0
2017-Dec-08 07:29N 40°43' W 074°07'0 0.0
2017-Dec-08 06:59N 40°43' W 074°07'0 0.0
2017-Dec-08 06:29N 40°43' W 074°07'0 0.0
2017-Dec-08 05:59N 40°43' W 074°07'0 0.0
2017-Dec-08 05:29N 40°43' W 074°07'0 0.0
2017-Dec-08 04:59N 40°43' W 074°07'0 0.0
2017-Dec-08 04:30N 40°43' W 074°07'0 0.0
2017-Dec-08 04:00N 40°43' W 074°07'0 0.0
2017-Dec-08 03:30N 40°43' W 074°07'0 0.0
2017-Dec-08 03:00N 40°43' W 074°07'0 0.0
2017-Dec-08 02:30N 40°43' W 074°07'0 0.0
2017-Dec-08 02:00N 40°43' W 074°07'0 0.2
2017-Dec-08 01:30N 40°43' W 074°07'2 3.5
2017-Dec-08 01:00N 40°41' W 074°08'2 4.4
2017-Dec-08 00:30N 40°39' W 074°09'4 8.2
2017-Dec-08 00:00N 40°39' W 074°04'1 1.3
2017-Dec-07 23:28N 40°39' W 074°03'0 0.1
2017-Dec-07 22:58N 40°39' W 074°03'0 0.0
2017-Dec-07 22:28N 40°39' W 074°03'0 0.0
2017-Dec-07 21:58N 40°39' W 074°03'0 0.0
2017-Dec-07 21:28N 40°39' W 074°03'0 0.0
2017-Dec-07 20:58N 40°39' W 074°03'0 0.1
2017-Dec-07 20:28N 40°39' W 074°03'0 0.1
2017-Dec-07 19:58N 40°39' W 074°03'0 0.1
2017-Dec-07 19:28N 40°39' W 074°03'0 0.1
2017-Dec-07 18:58N 40°39' W 074°02'0 0.0
2017-Dec-07 18:28N 40°39' W 074°02'0 0.1
2017-Dec-07 17:58N 40°39' W 074°02'0 0.2
2017-Dec-07 17:30N 40°39' W 074°02'0 0.1
2017-Dec-07 17:00N 40°39' W 074°02'0 0.1
2017-Dec-07 16:30N 40°39' W 074°02'0 0.0
2017-Dec-07 16:00N 40°39' W 074°03'0 0.1
2017-Dec-07 15:30N 40°39' W 074°02'0 0.0
2017-Dec-07 15:00N 40°39' W 074°02'0 0.0
2017-Dec-07 14:30N 40°39' W 074°02'0 0.0
2017-Dec-07 14:00N 40°39' W 074°02'0 0.0
2017-Dec-07 13:30N 40°39' W 074°02'0 0.0
2017-Dec-07 13:00N 40°39' W 074°02'0 0.0
2017-Dec-07 12:30N 40°39' W 074°02'0 0.3
2017-Dec-07 12:00N 40°39' W 074°03'0 0.2
2017-Dec-07 11:30N 40°39' W 074°03'0 0.0
2017-Dec-07 11:00N 40°39' W 074°03'0 0.0
2017-Dec-07 10:30N 40°39' W 074°03'2 4.8
2017-Dec-07 10:00N 40°36' W 074°03'2 4.5
2017-Dec-07 09:30N 40°34' W 074°02'1 2.5
2017-Dec-07 09:00N 40°33' W 074°02'3 3.5
2017-Dec-07 08:00N 40°31' W 073°58'2 3.7
2017-Dec-07 07:30N 40°30' W 073°56'2 4.1
2017-Dec-07 07:00N 40°29' W 073°54'3 5.9
2017-Dec-07 06:26N 40°26' W 073°53'4 7.4
2017-Dec-07 05:55N 40°22' W 073°53'33 7.5
2017-Dec-07 01:34N 39°49' W 073°58'0 7.8
2017-Dec-07 01:30N 39°49' W 073°58'4 7.8
2017-Dec-07 01:00N 39°45' W 073°59'4 7.8
2017-Dec-07 00:29N 39°41' W 073°60'4 7.8
2017-Dec-06 23:59N 39°37' W 074°01'4 7.8
2017-Dec-06 23:29N 39°34' W 074°02'5 7.8
2017-Dec-06 22:52N 39°29' W 074°04'  
2017-Dec-04 10:30N 36°46' W 076°18'0 0.0
2017-Dec-04 10:00N 36°46' W 076°18'0 0.0
2017-Dec-04 09:30N 36°46' W 076°18'0 0.0
2017-Dec-04 09:00N 36°46' W 076°18'0 0.0
2017-Dec-04 08:30N 36°46' W 076°18'0 0.0
2017-Dec-04 08:00N 36°46' W 076°18'0 0.0
2017-Dec-04 07:30N 36°46' W 076°18'0 0.0
2017-Dec-04 07:00N 36°46' W 076°18'0 0.0
2017-Dec-04 06:30N 36°46' W 076°18'0 0.0
2017-Dec-04 06:00N 36°46' W 076°18'0 0.0
2017-Dec-04 05:30N 36°46' W 076°18'0 0.0
2017-Dec-04 05:00N 36°46' W 076°18'0 0.0
2017-Dec-04 04:30N 36°46' W 076°18'0 0.0
2017-Dec-04 04:00N 36°46' W 076°18'0 0.0
2017-Dec-04 03:30N 36°46' W 076°18'0 0.0
2017-Dec-04 03:00N 36°46' W 076°18'0 0.0
2017-Dec-04 02:30N 36°46' W 076°18'0 0.0
2017-Dec-04 02:00N 36°46' W 076°18'0 0.0
2017-Dec-04 01:30N 36°46' W 076°18'0 0.0
2017-Dec-04 01:00N 36°46' W 076°18'0 0.0
2017-Dec-04 00:30N 36°46' W 076°18'0 0.0
2017-Dec-04 00:00N 36°46' W 076°18'0 0.0
2017-Dec-03 23:30N 36°46' W 076°18'0 0.0
2017-Dec-03 23:00N 36°46' W 076°18'0 0.0
2017-Dec-03 22:30N 36°46' W 076°18'0 0.0
2017-Dec-03 22:00N 36°46' W 076°18'0 0.0
2017-Dec-03 21:30N 36°46' W 076°18'0 0.0
2017-Dec-03 21:00N 36°46' W 076°18'0 0.0
2017-Dec-03 20:30N 36°46' W 076°18'0 0.7
2017-Dec-03 20:00N 36°47' W 076°18'1 1.1
2017-Dec-03 19:30N 36°47' W 076°18'3 5.2
2017-Dec-03 19:00N 36°50' W 076°18'3 6.5
2017-Dec-03 18:30N 36°52' W 076°20'5 7.8
2017-Dec-03 17:55N 36°57' W 076°20'11 3.0
2017-Dec-03 14:22N 36°59' W 076°07'3 8.7
2017-Dec-03 14:00N 36°58' W 076°03'4 8.9
2017-Dec-03 13:30N 36°57' W 075°58'5 9.5
2017-Dec-03 13:00N 36°57' W 075°52'17410.8
2017-Dec-02 20:59N 39°29' W 074°05'511.0
2017-Dec-02 20:30N 39°34' W 074°02'610.9
2017-Dec-02 20:00N 39°39' W 074°00'611.0
2017-Dec-02 19:29N 39°45' W 073°59'510.9
2017-Dec-02 19:00N 39°50' W 073°58'3410.3
2017-Dec-02 15:43N 40°23' W 073°54'3 9.8
2017-Dec-02 15:27N 40°26' W 073°54'4 8.0
2017-Dec-02 14:59N 40°30' W 073°56'5 9.7
2017-Dec-02 14:29N 40°32' W 074°01'4 9.1
2017-Dec-02 14:00N 40°36' W 074°03'2 4.9
2017-Dec-02 13:30N 40°38' W 074°04'3 6.7
2017-Dec-02 13:00N 40°39' W 074°08'3 5.0
2017-Dec-02 12:30N 40°41' W 074°08'2 3.4
2017-Dec-02 12:00N 40°43' W 074°07'0 0.0
2017-Dec-02 11:30N 40°43' W 074°07'0 0.1
2017-Dec-02 11:00N 40°43' W 074°07'0 0.0
2017-Dec-02 10:30N 40°43' W 074°07'0 0.0
2017-Dec-02 10:00N 40°43' W 074°07'0 0.0
2017-Dec-02 09:30N 40°43' W 074°07'0 0.0
2017-Dec-02 09:00N 40°43' W 074°07'0 0.0
2017-Dec-02 08:30N 40°43' W 074°07'0 0.0
2017-Dec-02 08:00N 40°43' W 074°07'0 0.0
2017-Dec-02 07:30N 40°43' W 074°07'0 0.0
2017-Dec-02 07:00N 40°43' W 074°07'0 0.0
2017-Dec-02 06:30N 40°43' W 074°07'0 0.0
2017-Dec-02 06:00N 40°43' W 074°07'0 0.0
2017-Dec-02 05:30N 40°43' W 074°07'0 0.0
2017-Dec-02 05:00N 40°43' W 074°07'0 0.0
2017-Dec-02 04:30N 40°43' W 074°07'0 0.0
2017-Dec-02 04:00N 40°43' W 074°07'0 0.0
2017-Dec-02 03:30N 40°43' W 074°07'0 0.0
2017-Dec-02 03:00N 40°43' W 074°07'0 0.0
2017-Dec-02 02:30N 40°43' W 074°07'0 0.0
2017-Dec-02 02:00N 40°43' W 074°07'0 0.0
2017-Dec-02 01:30N 40°43' W 074°07'0 0.0
2017-Dec-02 01:00N 40°43' W 074°07'0 0.0
2017-Dec-02 00:30N 40°43' W 074°07'0 0.0
2017-Dec-02 00:00N 40°43' W 074°07'0 0.0
2017-Dec-01 23:30N 40°43' W 074°07'0 0.0
2017-Dec-01 23:00N 40°43' W 074°07'0 0.1
2017-Dec-01 22:30N 40°43' W 074°07'2 4.3
2017-Dec-01 22:00N 40°41' W 074°08'2 4.0
2017-Dec-01 21:30N 40°39' W 074°07'3 6.0
2017-Dec-01 21:00N 40°38' W 074°03'0 0.2
2017-Dec-01 20:30N 40°38' W 074°03'0 0.0
2017-Dec-01 20:00N 40°38' W 074°03'0 0.1
2017-Dec-01 19:30N 40°38' W 074°03'0 0.1
2017-Dec-01 19:00N 40°38' W 074°03'0 0.2
2017-Dec-01 18:30N 40°38' W 074°03'0 0.3
2017-Dec-01 18:00N 40°38' W 074°03'3 5.8
2017-Dec-01 17:30N 40°39' W 074°07'2 3.5
2017-Dec-01 17:00N 40°40' W 074°08'2 4.6
2017-Dec-01 16:30N 40°42' W 074°07'0 0.8
2017-Dec-01 16:00N 40°43' W 074°07'0 0.2
2017-Dec-01 15:30N 40°43' W 074°07'0 0.0
2017-Dec-01 15:00N 40°43' W 074°07'3 6.1
2017-Dec-01 14:30N 40°40' W 074°08'1 2.8
2017-Dec-01 14:00N 40°38' W 074°08'0 0.0
2017-Dec-01 13:30N 40°38' W 074°08'0 0.0
2017-Dec-01 13:00N 40°38' W 074°08'0 0.0
2017-Dec-01 12:30N 40°38' W 074°08'0 0.0
2017-Dec-01 12:00N 40°38' W 074°08'0 0.0
2017-Dec-01 11:30N 40°38' W 074°08'0 0.0
2017-Dec-01 11:00N 40°38' W 074°08'0 0.0
2017-Dec-01 10:30N 40°38' W 074°08'0 0.0
2017-Dec-01 10:00N 40°38' W 074°08'0 0.0
2017-Dec-01 09:30N 40°38' W 074°08'0 0.0
2017-Dec-01 09:00N 40°38' W 074°08'0 0.0
2017-Dec-01 08:30N 40°38' W 074°08'0 0.0
2017-Dec-01 07:59N 40°38' W 074°08'0 0.0
2017-Dec-01 07:30N 40°38' W 074°08'0 0.0
2017-Dec-01 07:00N 40°38' W 074°08'0 0.0
2017-Dec-01 06:30N 40°38' W 074°08'0 0.0
2017-Dec-01 06:00N 40°38' W 074°08'0 0.0
2017-Dec-01 05:30N 40°38' W 074°08'0 0.0
2017-Dec-01 05:00N 40°38' W 074°08'0 0.0
2017-Dec-01 04:30N 40°38' W 074°08'  

Dump ship's entire track history